createdAt,value
2023-05-09T00:01:59.413Z,101225.91
2023-05-09T00:05:03.975Z,101220.00
2023-05-09T00:08:06.763Z,101218.34
2023-05-09T00:11:11.307Z,101217.50
2023-05-09T00:14:14.028Z,101211.41
2023-05-09T00:17:17.091Z,101214.91
2023-05-09T00:20:20.204Z,101201.50
2023-05-09T00:23:23.877Z,101197.72
2023-05-09T00:26:28.370Z,101204.00
2023-05-09T00:29:32.955Z,101206.16
2023-05-09T00:32:35.696Z,101195.28
2023-05-09T00:35:40.392Z,101193.97
2023-05-09T00:38:42.609Z,101196.69
2023-05-09T00:41:44.908Z,101203.19
2023-05-09T00:44:49.579Z,101193.72
2023-05-09T00:47:54.147Z,101207.97
2023-05-09T00:50:56.538Z,101198.97
2023-05-09T00:53:59.011Z,101197.72
2023-05-09T00:57:01.341Z,101200.91
2023-05-09T01:00:04.662Z,101200.72
2023-05-09T01:03:07.415Z,101207.56
2023-05-09T01:06:46.759Z,101210.03
2023-05-09T01:10:02.916Z,101213.56
2023-05-09T01:13:42.953Z,101207.91
2023-05-09T01:16:58.849Z,101182.59
2023-05-09T01:20:16.204Z,101201.13
2023-05-09T01:23:44.740Z,101188.63
2023-05-09T01:26:53.137Z,101193.75
2023-05-09T01:30:03.048Z,101193.88
2023-05-09T01:33:13.408Z,101187.16
2023-05-09T01:36:21.458Z,101192.63
2023-05-09T01:39:28.489Z,101200.72
2023-05-09T01:42:59.084Z,101191.78
2023-05-09T01:46:04.924Z,101181.25
2023-05-09T01:49:09.421Z,101189.34
2023-05-09T01:52:18.646Z,101175.75
2023-05-09T01:55:25.675Z,101177.75
2023-05-09T01:58:33.649Z,101171.56
2023-05-09T02:01:36.057Z,101181.56
2023-05-09T02:04:41.139Z,101178.59
2023-05-09T02:07:47.127Z,101169.78
2023-05-09T02:10:49.982Z,101180.22
2023-05-09T02:13:52.306Z,101169.78
2023-05-09T02:16:54.686Z,101172.91
2023-05-09T02:19:57.256Z,101175.63
2023-05-09T02:23:04.753Z,101163.44
2023-05-09T02:26:09.569Z,101166.34
2023-05-09T02:29:16.638Z,101171.84
2023-05-09T02:32:27.150Z,101168.88
2023-05-09T02:35:29.987Z,101169.63
2023-05-09T02:38:35.460Z,101166.69
2023-05-09T02:41:39.710Z,101157.94
2023-05-09T02:44:41.972Z,101160.47
2023-05-09T02:47:46.523Z,101169.44
2023-05-09T02:50:51.034Z,101167.72
2023-05-09T02:53:53.419Z,101156.56
2023-05-09T02:56:56.144Z,101166.13
2023-05-09T02:59:58.434Z,101153.56
2023-05-09T03:03:00.775Z,101153.56
2023-05-09T03:06:06.028Z,101158.38
2023-05-09T03:09:11.167Z,101142.28
2023-05-09T03:12:13.775Z,101159.28
2023-05-09T03:15:18.439Z,101151.44
2023-05-09T03:18:22.397Z,101100.47
2023-05-09T03:21:27.505Z,101152.00
2023-05-09T03:24:35.254Z,101156.50
2023-05-09T03:27:40.545Z,101150.97
2023-05-09T03:30:50.288Z,101158.47
2023-05-09T03:33:58.357Z,101156.41
2023-05-09T03:37:01.180Z,101151.69
2023-05-09T03:40:05.879Z,101168.00
2023-05-09T03:43:14.610Z,101165.03
2023-05-09T03:46:16.983Z,101162.13
2023-05-09T03:49:21.904Z,101157.06
2023-05-09T03:52:30.533Z,101171.13
2023-05-09T03:55:33.300Z,101168.84
2023-05-09T03:58:35.805Z,101167.16
2023-05-09T04:01:40.280Z,101175.59
2023-05-09T04:04:47.282Z,101165.59
2023-05-09T04:07:51.355Z,101173.63
2023-05-09T04:10:57.325Z,101162.84
2023-05-09T04:14:00.749Z,101160.09
2023-05-09T04:17:09.570Z,101163.41
2023-05-09T04:20:12.685Z,101168.50
2023-05-09T04:23:16.652Z,101169.13
2023-05-09T04:26:19.067Z,101180.38
2023-05-09T04:29:24.168Z,101173.22
2023-05-09T04:32:30.217Z,101167.31
2023-05-09T04:35:32.855Z,101172.47
2023-05-09T04:38:35.516Z,101167.34
2023-05-09T04:41:40.675Z,101169.31
2023-05-09T04:44:45.171Z,101169.75
2023-05-09T04:47:50.309Z,101154.31
2023-05-09T04:50:54.937Z,101168.66
2023-05-09T04:53:57.360Z,101169.28
2023-05-09T04:57:17.254Z,101170.34
2023-05-09T05:00:22.881Z,101174.97
2023-05-09T05:03:25.119Z,101171.19
2023-05-09T05:06:27.476Z,101179.19
2023-05-09T05:09:32.450Z,101169.53
2023-05-09T05:12:34.836Z,101164.47
2023-05-09T05:15:38.057Z,101171.41
2023-05-09T05:18:41.741Z,101183.34
2023-05-09T05:21:44.921Z,101182.72
2023-05-09T05:24:50.919Z,101174.88
2023-05-09T05:27:53.509Z,101170.78
2023-05-09T05:30:56.482Z,101171.16
2023-05-09T05:34:01.011Z,101170.91
2023-05-09T05:37:07.200Z,101179.19
2023-05-09T05:40:11.165Z,101173.94
2023-05-09T05:43:16.898Z,101168.78
2023-05-09T05:46:21.661Z,101172.00
2023-05-09T05:49:25.161Z,101166.28
2023-05-09T05:52:32.842Z,101181.16
2023-05-09T05:55:36.584Z,101172.78
2023-05-09T05:58:41.041Z,101173.75
2023-05-09T06:01:43.595Z,101178.41
2023-05-09T06:04:49.170Z,101158.19
2023-05-09T06:07:54.339Z,101172.00
2023-05-09T06:10:59.369Z,101155.91
2023-05-09T06:14:04.311Z,101171.25
2023-05-09T06:17:06.758Z,101174.03
2023-05-09T06:20:09.277Z,101162.28
2023-05-09T06:23:11.568Z,101152.78
2023-05-09T06:26:14.876Z,101158.25
2023-05-09T06:29:22.290Z,101148.94
2023-05-09T06:32:25.164Z,101161.84
2023-05-09T06:35:29.806Z,101143.56
2023-05-09T06:38:33.700Z,101162.13
2023-05-09T06:41:40.846Z,101176.00
2023-05-09T06:44:43.883Z,101140.47
2023-05-09T06:47:46.232Z,101147.63
2023-05-09T06:50:48.693Z,101143.59
2023-05-09T06:53:51.037Z,101146.72
2023-05-09T06:56:53.505Z,101145.19
2023-05-09T07:00:01.159Z,101144.72
2023-05-09T07:03:03.692Z,101131.13
2023-05-09T07:06:06.111Z,101133.88
2023-05-09T07:09:09.018Z,101140.03
2023-05-09T07:12:16.212Z,101115.88
2023-05-09T07:15:39.931Z,101109.53
2023-05-09T07:18:45.673Z,101134.22
2023-05-09T07:21:47.983Z,101129.41
2023-05-09T07:24:52.483Z,101120.41
2023-05-09T07:28:00.180Z,101110.25
2023-05-09T07:31:03.369Z,101107.44
2023-05-09T07:34:05.767Z,101096.06
2023-05-09T07:37:08.744Z,101093.06
2023-05-09T07:40:13.621Z,101113.38
2023-05-09T07:43:16.253Z,101105.03
2023-05-09T07:46:18.570Z,101085.59
2023-05-09T07:49:21.809Z,101075.59
2023-05-09T07:52:26.551Z,101090.03
2023-05-09T07:55:28.817Z,101090.91
2023-05-09T07:58:31.088Z,101077.16
2023-05-09T08:01:33.418Z,101075.03
2023-05-09T08:04:38.322Z,101075.53
2023-05-09T08:07:40.824Z,101067.66
2023-05-09T08:10:43.844Z,101065.03
2023-05-09T08:13:47.183Z,101058.44
2023-05-09T08:16:49.549Z,101059.47
2023-05-09T08:19:56.818Z,101038.94
2023-05-09T08:22:59.097Z,101047.34
2023-05-09T08:26:01.395Z,101042.38
2023-05-09T08:29:03.644Z,101040.31
2023-05-09T08:32:08.599Z,101054.53
2023-05-09T08:35:11.101Z,101046.69
2023-05-09T08:38:13.389Z,101038.19
2023-05-09T08:41:18.251Z,101039.81
2023-05-09T08:44:23.450Z,101039.97
2023-05-09T08:47:26.476Z,101041.19
2023-05-09T08:50:29.004Z,101035.53
2023-05-09T08:53:32.087Z,101038.44
2023-05-09T08:56:35.249Z,101039.53
2023-05-09T08:59:40.345Z,101045.69
2023-05-09T09:02:42.717Z,101033.69
2023-05-09T09:05:46.816Z,101023.25
2023-05-09T09:08:50.550Z,101022.56
2023-05-09T09:11:55.688Z,101008.75
2023-05-09T09:15:04.410Z,101017.56
2023-05-09T09:18:11.026Z,101000.59
2023-05-09T09:21:17.109Z,101008.19
2023-05-09T09:24:22.978Z,101035.69
2023-05-09T09:27:25.224Z,101020.63
2023-05-09T09:30:27.715Z,101020.63
2023-05-09T09:33:30.079Z,101031.59
2023-05-09T09:36:33.052Z,101046.00
2023-05-09T09:39:37.952Z,100992.88
2023-05-09T09:42:48.080Z,101054.72
2023-05-09T09:45:51.495Z,101007.13
2023-05-09T09:48:57.705Z,101035.03
2023-05-09T09:52:00.096Z,101044.56
2023-05-09T09:55:02.693Z,101037.59
2023-05-09T09:58:16.550Z,101025.63
2023-05-09T10:01:20.091Z,101006.63
2023-05-09T10:04:26.662Z,101012.19
2023-05-09T10:07:33.953Z,100993.66
2023-05-09T10:10:37.779Z,100984.94
2023-05-09T10:13:43.745Z,101003.53
2023-05-09T10:16:50.787Z,100996.63
2023-05-09T10:19:55.767Z,100998.94
2023-05-09T10:23:02.243Z,101010.44
2023-05-09T10:26:16.693Z,101004.19
2023-05-09T10:29:24.229Z,100996.00
2023-05-09T10:32:39.216Z,100990.72
2023-05-09T10:35:46.601Z,100971.25
2023-05-09T10:38:56.204Z,101002.94
2023-05-09T10:42:00.750Z,100995.75
2023-05-09T10:45:03.566Z,100999.78
2023-05-09T10:48:08.862Z,100992.34
2023-05-09T10:51:12.610Z,101009.09
2023-05-09T10:54:34.797Z,100993.59
2023-05-09T10:57:52.841Z,100973.56
2023-05-09T11:01:01.992Z,100997.78
2023-05-09T11:04:14.565Z,100994.31
2023-05-09T11:07:27.439Z,100969.59
2023-05-09T11:10:42.783Z,101001.72
2023-05-09T11:13:48.392Z,100970.53
2023-05-09T11:17:07.274Z,100962.97
2023-05-09T11:20:12.380Z,100954.34
2023-05-09T11:23:26.528Z,100950.75
2023-05-09T11:26:31.621Z,100940.69
2023-05-09T11:29:44.277Z,100951.34
2023-05-09T11:32:51.526Z,100951.91
2023-05-09T11:36:15.278Z,100955.72
2023-05-09T11:39:24.665Z,100944.69
2023-05-09T11:42:30.751Z,100954.19
2023-05-09T11:45:33.522Z,100942.28
2023-05-09T11:48:42.287Z,100937.09
2023-05-09T11:51:46.743Z,100919.16
2023-05-09T11:54:49.743Z,100930.72
2023-05-09T11:57:57.100Z,100920.75
2023-05-09T12:01:04.035Z,100920.78
2023-05-09T12:04:09.182Z,100934.56
2023-05-09T12:07:14.086Z,100925.63
2023-05-09T12:10:20.243Z,100909.28
2023-05-09T12:13:22.922Z,100928.53
2023-05-09T12:16:25.219Z,100901.59
2023-05-09T12:19:28.759Z,100910.25
2023-05-09T12:22:32.112Z,100913.28
2023-05-09T12:25:34.543Z,100921.22
2023-05-09T12:28:37.372Z,100901.94
2023-05-09T12:31:41.226Z,100898.25
2023-05-09T12:34:48.533Z,100894.19
2023-05-09T12:37:58.608Z,100895.72
2023-05-09T12:44:24.549Z,100897.50
2023-05-09T12:47:31.042Z,100877.31
2023-05-09T12:50:36.805Z,100888.78
2023-05-09T12:53:42.460Z,100867.97
2023-05-09T12:56:48.014Z,100865.41
2023-05-09T12:59:50.825Z,100865.44
2023-05-09T13:02:53.311Z,100865.75
2023-05-09T13:06:02.347Z,100864.03
2023-05-09T13:09:09.337Z,100847.56
2023-05-09T13:12:14.057Z,100828.97
2023-05-09T13:15:20.068Z,100839.72
2023-05-09T13:18:24.957Z,100845.06
2023-05-09T13:21:29.637Z,100835.59
2023-05-09T13:24:34.423Z,100823.28
2023-05-09T13:27:37.419Z,100834.47
2023-05-09T13:30:39.893Z,100831.63
2023-05-09T13:33:42.222Z,100831.63
2023-05-09T13:36:44.464Z,100848.09
2023-05-09T13:39:49.353Z,100841.25
2023-05-09T13:42:54.113Z,100831.28
2023-05-09T13:45:56.394Z,100847.56
2023-05-09T13:49:01.968Z,100827.53
2023-05-09T13:52:05.234Z,100821.31
2023-05-09T13:55:10.794Z,100813.09
2023-05-09T13:58:13.078Z,100808.47
2023-05-09T14:01:18.440Z,100801.47
2023-05-09T14:04:23.065Z,100799.78
2023-05-09T14:07:27.660Z,100794.44
2023-05-09T14:10:29.931Z,100797.44
2023-05-09T14:13:34.650Z,100789.53
2023-05-09T14:16:39.635Z,100777.69
2023-05-09T14:19:41.884Z,100789.31
2023-05-09T14:22:44.195Z,100780.78
2023-05-09T14:25:47.022Z,100786.25
2023-05-09T14:28:51.148Z,100780.84
2023-05-09T14:31:53.912Z,100791.16
2023-05-09T14:35:01.117Z,100763.41
2023-05-09T14:38:03.446Z,100768.97
2023-05-09T14:41:06.956Z,100782.63
2023-05-09T14:44:09.323Z,100782.00
2023-05-09T14:47:14.369Z,100791.78
2023-05-09T14:50:16.917Z,100771.91
2023-05-09T14:53:22.948Z,100767.50
2023-05-09T14:56:25.298Z,100771.50
2023-05-09T14:59:27.532Z,100775.16
2023-05-09T15:02:32.233Z,100759.63
2023-05-09T15:05:39.436Z,100741.34
2023-05-09T15:08:41.773Z,100758.78
2023-05-09T15:11:48.206Z,100749.94
2023-05-09T15:14:55.400Z,100744.44
2023-05-09T15:18:00.978Z,100742.19
2023-05-09T15:21:03.481Z,100767.31
2023-05-09T15:24:06.273Z,100741.66
2023-05-09T15:27:08.826Z,100746.94
2023-05-09T15:30:14.086Z,100755.72
2023-05-09T15:33:19.299Z,100743.03
2023-05-09T15:36:21.594Z,100731.00
2023-05-09T15:39:23.862Z,100726.47
2023-05-09T15:42:26.147Z,100732.75
2023-05-09T15:45:30.748Z,100726.25
2023-05-09T15:48:33.026Z,100735.09
2023-05-09T15:51:37.716Z,100721.25
2023-05-09T15:54:40.220Z,100718.81
2023-05-09T15:57:45.315Z,100719.31
2023-05-09T16:00:48.117Z,100705.81
2023-05-09T16:03:53.006Z,100703.28
2023-05-09T16:06:55.672Z,100692.00
2023-05-09T16:09:57.952Z,100711.59
2023-05-09T16:13:02.555Z,100715.63
2023-05-09T16:16:05.202Z,100723.56
2023-05-09T16:19:09.798Z,100710.16
2023-05-09T16:22:12.124Z,100705.97
2023-05-09T16:25:19.736Z,100709.97
2023-05-09T16:28:23.622Z,100715.50
2023-05-09T16:31:28.303Z,100711.66
2023-05-09T16:34:33.256Z,100710.31
2023-05-09T16:37:35.813Z,100703.72
2023-05-09T16:40:40.789Z,100706.00
2023-05-09T16:43:43.164Z,100698.56
2023-05-09T16:46:48.893Z,100696.06
2023-05-09T16:49:51.156Z,100697.22
2023-05-09T16:52:55.948Z,100684.22
2023-05-09T16:55:58.544Z,100686.13
2023-05-09T16:59:01.292Z,100696.13
2023-05-09T17:02:06.500Z,100683.06
2023-05-09T17:05:09.438Z,100693.38
2023-05-09T17:08:13.926Z,100688.38
2023-05-09T17:11:18.719Z,100691.06
2023-05-09T17:14:23.227Z,100685.13
2023-05-09T17:17:25.558Z,100679.00
2023-05-09T17:20:30.362Z,100684.78
2023-05-09T17:23:37.455Z,100689.88
2023-05-09T17:26:41.976Z,100680.25
2023-05-09T17:29:44.275Z,100690.69
2023-05-09T17:32:46.786Z,100677.41
2023-05-09T17:35:50.119Z,100674.53
2023-05-09T17:38:52.426Z,100678.84
2023-05-09T17:41:57.032Z,100683.63
2023-05-09T17:44:59.675Z,100671.78
2023-05-09T17:48:02.297Z,100676.03
2023-05-09T17:51:07.108Z,100676.38
2023-05-09T17:54:10.517Z,100680.97
2023-05-09T17:57:12.933Z,100687.50
2023-05-09T18:00:18.848Z,100672.25
2023-05-09T18:03:23.801Z,100683.09
2023-05-09T18:06:28.999Z,100687.38
2023-05-09T18:09:34.689Z,100688.38
2023-05-09T18:12:39.226Z,100679.78
2023-05-09T18:15:44.646Z,100681.66
2023-05-09T18:18:46.991Z,100688.16
2023-05-09T18:21:49.317Z,100695.78
2023-05-09T18:24:53.037Z,100696.50
2023-05-09T18:28:02.591Z,100689.59
2023-05-09T18:31:06.332Z,100701.09
2023-05-09T18:34:11.248Z,100703.25
2023-05-09T18:37:16.877Z,100695.09
2023-05-09T18:40:19.550Z,100710.69
2023-05-09T18:43:27.375Z,100713.34
2023-05-09T18:46:33.591Z,100715.44
2023-05-09T18:49:38.973Z,100717.97
2023-05-09T18:52:41.358Z,100721.63
2023-05-09T18:55:48.368Z,100708.19
2023-05-09T18:58:50.710Z,100718.94
2023-05-09T19:01:53.198Z,100729.75
2023-05-09T19:05:00.807Z,100719.59
2023-05-09T19:08:09.356Z,100690.50
2023-05-09T19:11:11.776Z,100712.81
2023-05-09T19:14:15.390Z,100726.19
2023-05-09T19:17:17.665Z,100725.03
2023-05-09T19:20:20.131Z,100728.16
2023-05-09T19:23:22.769Z,100729.75
2023-05-09T19:26:25.222Z,100716.25
2023-05-09T19:29:29.703Z,100702.91
2023-05-09T19:32:34.395Z,100715.06
2023-05-09T19:35:38.295Z,100715.91
2023-05-09T19:38:43.044Z,100717.13
2023-05-09T19:41:46.057Z,100716.91
2023-05-09T19:44:49.315Z,100707.38
2023-05-09T19:47:51.777Z,100710.50
2023-05-09T19:50:59.844Z,100708.00
2023-05-09T19:54:02.242Z,100711.47
2023-05-09T19:57:06.558Z,100717.09
2023-05-09T20:00:09.663Z,100703.84
2023-05-09T20:03:14.683Z,100699.91
2023-05-09T20:06:19.738Z,100704.19
2023-05-09T20:09:24.307Z,100701.22
2023-05-09T20:12:31.396Z,100704.56
2023-05-09T20:15:35.881Z,100706.47
2023-05-09T20:18:38.144Z,100697.31
2023-05-09T20:21:40.797Z,100704.34
2023-05-09T20:24:45.794Z,100712.56
2023-05-09T20:27:50.387Z,100711.16
2023-05-09T20:30:52.640Z,100698.06
2023-05-09T20:33:58.151Z,100702.81
2023-05-09T20:37:00.357Z,100703.75
2023-05-09T20:40:08.414Z,100680.91
2023-05-09T20:43:12.907Z,100686.38
2023-05-09T20:46:17.589Z,100686.38
2023-05-09T20:49:23.068Z,100686.72
2023-05-09T20:52:27.553Z,100691.72
2023-05-09T20:55:32.414Z,100683.97
2023-05-09T20:58:37.180Z,100665.16
2023-05-09T21:01:40.457Z,100686.84
2023-05-09T21:04:45.388Z,100673.38
2023-05-09T21:07:48.885Z,100682.06
2023-05-09T21:10:52.845Z,100677.66
2023-05-09T21:13:55.171Z,100681.00
2023-05-09T21:17:00.343Z,100677.63
2023-05-09T21:20:02.583Z,100673.94
2023-05-09T21:23:04.859Z,100671.78
2023-05-09T21:26:09.296Z,100680.00
2023-05-09T21:29:11.518Z,100681.44
2023-05-09T21:32:13.777Z,100671.78
2023-05-09T21:35:18.392Z,100669.28
2023-05-09T21:38:23.010Z,100664.88
2023-05-09T21:41:27.816Z,100670.13
2023-05-09T21:44:32.303Z,100664.41
2023-05-09T21:47:34.655Z,100662.06
2023-05-09T21:50:37.204Z,100667.91
2023-05-09T21:53:41.990Z,100666.69
2023-05-09T21:56:46.752Z,100670.97
2023-05-09T21:59:49.082Z,100667.75
2023-05-09T22:02:53.853Z,100670.97
2023-05-09T22:05:56.172Z,100665.16
2023-05-09T22:08:58.687Z,100672.63
2023-05-09T22:12:00.969Z,100674.63
2023-05-09T22:15:03.414Z,100664.75
2023-05-09T22:18:08.086Z,100669.88
2023-05-09T22:21:10.563Z,100661.53
2023-05-09T22:24:16.545Z,100666.00
2023-05-09T22:27:18.828Z,100654.47
2023-05-09T22:30:21.224Z,100660.38
2023-05-09T22:33:23.525Z,100663.38
2023-05-09T22:36:28.008Z,100660.84
2023-05-09T22:39:31.016Z,100662.19
2023-05-09T22:42:36.047Z,100664.41
2023-05-09T22:45:38.858Z,100653.91
2023-05-09T22:48:43.383Z,100657.91
2023-05-09T22:51:53.886Z,100655.41
2023-05-09T22:55:00.884Z,100657.44
2023-05-09T22:58:03.760Z,100658.22
2023-05-09T23:01:06.137Z,100660.22
2023-05-09T23:04:08.467Z,100660.22
2023-05-09T23:07:48.345Z,100652.78
2023-05-09T23:10:51.827Z,100653.00
2023-05-09T23:13:54.118Z,100646.09
2023-05-09T23:16:58.733Z,100655.38
2023-05-09T23:20:04.126Z,100645.84
2023-05-09T23:23:10.919Z,100655.28
2023-05-09T23:26:18.133Z,100652.53
2023-05-09T23:29:22.756Z,100661.06
2023-05-09T23:32:29.790Z,100659.78
2023-05-09T23:35:34.468Z,100653.09
2023-05-09T23:38:36.866Z,100646.50
2023-05-09T23:41:46.406Z,100646.59
2023-05-09T23:44:50.901Z,100647.19
2023-05-09T23:47:55.440Z,100637.56
2023-05-09T23:51:00.399Z,100633.63
2023-05-09T23:54:05.740Z,100632.41
2023-05-09T23:57:08.090Z,100634.09
